Time;durP1;ratioP1;P1;durP2;ratioP2;P2;SDS_P1;SDS_P2;PMS_P1;PMS_P2;Temp;Humidity;BMP_temperature;BMP_pressure;BME280_temperature;BME280_humidity;BME280_pressure;Samples;Min_cycle;Max_cycle;Signal;HPM_P1;HPM_P2
2023/09/08 00:00:39;;;;;;;;;;;15.50;99.90;;;;;;5094117;28;19950;-67
2023/09/08 00:03:06;;;;;;;;;;;15.30;99.90;;;;;;5093539;28;19954;-76
2023/09/08 00:05:32;;;;;;;;;;;15.20;99.90;;;;;;5093559;28;19908;-67
2023/09/08 00:07:59;;;;;;;;;;;15.10;99.90;;;;;;5093389;28;19969;-70
2023/09/08 00:10:26;;;;;;;;;;;15.00;99.90;;;;;;5092171;28;20505;-67
2023/09/08 00:12:52;;;;;;;;;;;14.90;99.90;;;;;;5093423;28;20054;-69
2023/09/08 00:15:19;;;;;;;;;;;14.90;99.90;;;;;;5093480;28;19915;-67
2023/09/08 00:17:47;;;;;;;;;;;14.90;99.90;;;;;;5093367;28;20003;-70
2023/09/08 00:20:13;;;;;;;;;;;14.80;99.90;;;;;;5093245;28;20284;-67
2023/09/08 00:22:40;;;;;;;;;;;14.90;99.90;;;;;;5093296;28;19908;-66
2023/09/08 00:25:07;;;;;;;;;;;14.80;99.90;;;;;;5093255;28;19912;-67
2023/09/08 00:27:33;;;;;;;;;;;14.90;99.90;;;;;;5093055;28;19916;-70
2023/09/08 00:30:01;;;;;;;;;;;14.90;99.90;;;;;;5091904;28;19908;-68
2023/09/08 00:32:28;;;;;;;;;;;14.90;99.90;;;;;;5093353;28;19934;-65
2023/09/08 00:34:54;;;;;;;;;;;14.90;99.90;;;;;;5093122;28;20357;-64
2023/09/08 00:37:21;;;;;;;;;;;14.90;99.90;;;;;;5092575;28;19931;-65
2023/09/08 00:39:48;;;;;;;;;;;14.80;99.90;;;;;;5093160;28;19916;-65
2023/09/08 00:42:14;;;;;;;;;;;14.90;99.90;;;;;;5093081;28;20368;-66
2023/09/08 00:44:41;;;;;;;;;;;14.80;99.90;;;;;;5092988;28;20285;-65
2023/09/08 00:47:08;;;;;;;;;;;14.80;99.90;;;;;;5092869;28;19973;-66
2023/09/08 00:49:38;;;;;;;;;;;14.70;99.90;;;;;;5091983;28;20267;-66
2023/09/08 00:52:05;;;;;;;;;;;14.60;99.90;;;;;;5092960;28;19908;-68
2023/09/08 00:54:32;;;;;;;;;;;14.50;99.90;;;;;;5093181;28;19909;-66
2023/09/08 00:57:02;;;;;;;;;;;14.50;99.90;;;;;;5093061;28;19965;-66
2023/09/08 00:59:29;;;;;;;;;;;14.50;99.90;;;;;;5093102;28;19943;-69
2023/09/08 01:01:56;;;;;;;;;;;14.40;99.90;;;;;;5092915;28;19955;-67
2023/09/08 01:04:22;;;;;;;;;;;14.40;99.90;;;;;;5092945;28;20369;-66
2023/09/08 01:06:50;;;;;;;;;;;14.50;99.90;;;;;;5092799;28;19922;-67
2023/09/08 01:09:17;;;;;;;;;;;14.70;99.90;;;;;;5093015;28;19913;-66
2023/09/08 01:11:44;;;;;;;;;;;14.80;99.90;;;;;;5092515;28;19915;-66
2023/09/08 01:14:13;;;;;;;;;;;14.80;99.90;;;;;;5092596;28;19964;-69
2023/09/08 01:16:40;;;;;;;;;;;14.60;99.90;;;;;;5092750;28;20038;-70
2023/09/08 01:19:11;;;;;;;;;;;14.60;99.90;;;;;;5092711;28;19912;-73
2023/09/08 01:21:50;;;;;;;;;;;14.60;99.90;;;;;;5092736;28;19915;-70
2023/09/08 01:24:51;;;;;;;;;;;14.60;99.90;;;;;;5092507;28;20308;-68
2023/09/08 01:27:19;;;;;;;;;;;14.80;99.90;;;;;;5050087;28;19925;-68
2023/09/08 01:29:46;;;;;;;;;;;14.90;99.90;;;;;;5084411;28;20364;-67
2023/09/08 01:32:12;;;;;;;;;;;15.10;99.90;;;;;;5092422;28;19915;-67
2023/09/08 01:34:41;;;;;;;;;;;15.20;99.90;;;;;;5092249;28;19904;-67
2023/09/08 01:37:08;;;;;;;;;;;15.40;99.90;;;;;;5092346;28;19908;-73
2023/09/08 01:39:35;;;;;;;;;;;15.30;99.90;;;;;;5092756;28;19953;-71
2023/09/08 01:42:02;;;;;;;;;;;15.30;99.90;;;;;;5092653;28;20284;-67
2023/09/08 01:44:28;;;;;;;;;;;15.20;99.90;;;;;;5092351;28;19908;-69
2023/09/08 01:46:56;;;;;;;;;;;15.30;99.90;;;;;;5092020;28;19967;-69
2023/09/08 01:49:23;;;;;;;;;;;15.40;99.90;;;;;;5092996;28;20296;-71
2023/09/08 01:51:50;;;;;;;;;;;15.50;99.90;;;;;;5096129;28;19912;-68
2023/09/08 01:54:17;;;;;;;;;;;15.60;99.90;;;;;;5096161;28;19958;-68
2023/09/08 01:56:43;;;;;;;;;;;15.90;99.90;;;;;;5095922;28;19908;-68
2023/09/08 01:59:10;;;;;;;;;;;15.90;99.90;;;;;;5095945;28;19998;-65
2023/09/08 02:01:37;;;;;;;;;;;15.90;99.90;;;;;;5096049;28;19950;-66
2023/09/08 02:04:03;;;;;;;;;;;16.00;99.90;;;;;;5095939;28;20357;-67
2023/09/08 02:06:30;;;;;;;;;;;15.90;99.90;;;;;;5095804;28;19916;-69
2023/09/08 02:08:56;;;;;;;;;;;15.90;99.90;;;;;;5095501;28;20310;-67
2023/09/08 02:11:23;;;;;;;;;;;15.80;99.90;;;;;;5095809;28;19962;-67
2023/09/08 02:13:50;;;;;;;;;;;15.70;99.90;;;;;;5093814;28;20045;-75
2023/09/08 02:16:16;;;;;;;;;;;15.60;99.90;;;;;;5094024;28;19919;-72
2023/09/08 02:18:43;;;;;;;;;;;15.60;99.90;;;;;;5095436;28;19999;-77
2023/09/08 02:21:10;;;;;;;;;;;15.70;99.90;;;;;;5095591;28;19908;-73
2023/09/08 02:23:37;;;;;;;;;;;15.50;99.90;;;;;;5095258;28;19908;-74
2023/09/08 02:26:03;;;;;;;;;;;15.50;99.90;;;;;;5095251;28;19908;-72
2023/09/08 02:28:30;;;;;;;;;;;15.40;99.90;;;;;;5095282;28;20402;-72
2023/09/08 02:30:57;;;;;;;;;;;15.40;99.90;;;;;;5095554;28;20572;-73
2023/09/08 02:33:23;;;;;;;;;;;15.60;99.90;;;;;;5094114;28;19919;-68
2023/09/08 02:35:50;;;;;;;;;;;15.80;99.90;;;;;;5095365;28;19908;-71
2023/09/08 02:38:16;;;;;;;;;;;16.00;99.90;;;;;;5095201;28;19912;-68
2023/09/08 02:40:43;;;;;;;;;;;16.40;99.90;;;;;;5094402;28;19969;-67
2023/09/08 02:43:10;;;;;;;;;;;16.70;99.90;;;;;;5094574;28;20364;-73
2023/09/08 02:45:37;;;;;;;;;;;16.80;99.90;;;;;;5094490;28;19963;-72
2023/09/08 02:48:03;;;;;;;;;;;16.80;99.90;;;;;;5094744;28;20429;-72
2023/09/08 02:50:30;;;;;;;;;;;16.60;99.90;;;;;;5094684;28;19908;-74
2023/09/08 02:52:56;;;;;;;;;;;16.40;99.90;;;;;;5094888;28;20271;-70
2023/09/08 02:55:23;;;;;;;;;;;16.10;99.90;;;;;;5094744;28;19915;-69
2023/09/08 02:57:50;;;;;;;;;;;16.00;99.90;;;;;;5094613;28;19931;-71
2023/09/08 03:00:16;;;;;;;;;;;16.00;99.90;;;;;;5094777;28;19915;-73
2023/09/08 03:02:43;;;;;;;;;;;15.90;99.90;;;;;;5094362;28;19915;-71
2023/09/08 03:05:10;;;;;;;;;;;15.90;99.90;;;;;;5094536;28;19954;-67
2023/09/08 03:07:37;;;;;;;;;;;16.20;99.90;;;;;;5094397;28;19916;-72
2023/09/08 03:10:04;;;;;;;;;;;16.50;99.90;;;;;;5094698;28;19909;-65
2023/09/08 03:12:30;;;;;;;;;;;17.70;99.90;;;;;;5094398;28;20254;-68
2023/09/08 03:14:57;;;;;;;;;;;18.90;99.90;;;;;;5093085;28;20327;-69
2023/09/08 03:17:23;;;;;;;;;;;19.20;99.30;;;;;;5094375;28;19908;-68
2023/09/08 03:19:52;;;;;;;;;;;19.00;98.60;;;;;;5094295;28;20003;-66
2023/09/08 03:22:18;;;;;;;;;;;18.40;99.50;;;;;;5094304;28;19908;-68
2023/09/08 03:24:45;;;;;;;;;;;18.10;99.40;;;;;;5094068;28;19908;-67
2023/09/08 03:27:11;;;;;;;;;;;18.50;99.50;;;;;;5094257;28;19920;-71
2023/09/08 03:29:38;;;;;;;;;;;20.60;97.10;;;;;;5094308;28;19908;-66
2023/09/08 03:32:05;;;;;;;;;;;22.70;92.50;;;;;;5094115;28;20303;-72
2023/09/08 03:34:32;;;;;;;;;;;22.70;90.30;;;;;;5094170;28;19998;-67
2023/09/08 03:36:58;;;;;;;;;;;22.20;90.40;;;;;;5094017;28;20331;-70
2023/09/08 03:39:25;;;;;;;;;;;22.40;90.50;;;;;;5093913;28;19991;-67
2023/09/08 03:41:51;;;;;;;;;;;22.60;88.20;;;;;;5094030;28;19908;-69
2023/09/08 03:44:18;;;;;;;;;;;23.30;89.20;;;;;;5094010;28;20003;-67
2023/09/08 03:46:45;;;;;;;;;;;25.10;82.90;;;;;;5093559;28;19920;-67
2023/09/08 03:49:12;;;;;;;;;;;26.00;78.30;;;;;;5093879;28;19908;-71
2023/09/08 03:51:38;;;;;;;;;;;26.40;76.00;;;;;;5093738;28;19954;-71
2023/09/08 03:54:05;;;;;;;;;;;26.60;75.60;;;;;;5093899;28;20384;-71
2023/09/08 03:56:32;;;;;;;;;;;27.30;72.70;;;;;;5093570;28;19915;-69
2023/09/08 03:58:59;;;;;;;;;;;27.80;67.50;;;;;;5093654;28;19908;-66
2023/09/08 04:01:25;;;;;;;;;;;28.80;65.60;;;;;;5093497;28;19908;-68
2023/09/08 04:03:52;;;;;;;;;;;29.10;62.70;;;;;;5093530;28;19908;-67
2023/09/08 04:06:18;;;;;;;;;;;29.60;60.70;;;;;;5093099;28;19915;-72
2023/09/08 04:08:45;;;;;;;;;;;30.40;60.30;;;;;;5093359;28;19915;-68
2023/09/08 04:11:12;;;;;;;;;;;30.70;57.00;;;;;;5093379;28;19908;-68
2023/09/08 04:13:38;;;;;;;;;;;31.10;55.00;;;;;;5092888;28;20479;-68
2023/09/08 04:16:05;;;;;;;;;;;30.30;50.90;;;;;;5093069;28;19908;-67
2023/09/08 04:18:32;;;;;;;;;;;30.30;51.20;;;;;;5093115;28;19920;-69
2023/09/08 04:20:58;;;;;;;;;;;30.70;51.60;;;;;;5093122;28;19908;-73
2023/09/08 04:23:25;;;;;;;;;;;30.70;48.30;;;;;;5093253;28;20003;-72
2023/09/08 04:25:51;;;;;;;;;;;30.80;48.50;;;;;;5093400;28;19919;-71
2023/09/08 04:28:18;;;;;;;;;;;30.30;48.00;;;;;;5092981;28;19916;-71
2023/09/08 04:30:45;;;;;;;;;;;30.30;48.70;;;;;;5092989;28;19908;-72
2023/09/08 04:33:12;;;;;;;;;;;31.50;49.20;;;;;;5093156;28;20272;-69
2023/09/08 04:35:38;;;;;;;;;;;32.60;45.30;;;;;;5093027;28;19965;-67
2023/09/08 04:38:05;;;;;;;;;;;32.10;44.80;;;;;;5093073;28;19908;-68
2023/09/08 04:40:32;;;;;;;;;;;31.10;44.50;;;;;;5092942;28;20315;-69
2023/09/08 04:42:58;;;;;;;;;;;30.60;45.20;;;;;;5093036;28;20379;-70
2023/09/08 04:45:25;;;;;;;;;;;30.20;43.90;;;;;;5092884;28;20018;-69
2023/09/08 04:47:51;;;;;;;;;;;30.50;45.00;;;;;;5092601;28;20340;-72
2023/09/08 04:50:18;;;;;;;;;;;31.30;44.60;;;;;;5092987;28;19908;-69
2023/09/08 04:52:45;;;;;;;;;;;31.90;44.30;;;;;;5092702;28;19912;-70
2023/09/08 04:55:11;;;;;;;;;;;32.10;43.70;;;;;;5092803;28;19915;-72
2023/09/08 04:57:38;;;;;;;;;;;31.90;43.70;;;;;;5092461;28;19990;-71
2023/09/08 05:00:05;;;;;;;;;;;32.10;42.80;;;;;;5092656;28;19947;-71
2023/09/08 05:02:32;;;;;;;;;;;32.30;42.40;;;;;;5092483;28;20371;-75
2023/09/08 05:04:59;;;;;;;;;;;31.70;42.40;;;;;;5092490;28;20288;-69
2023/09/08 05:07:26;;;;;;;;;;;30.90;43.20;;;;;;5092126;28;19916;-69
2023/09/08 05:09:53;;;;;;;;;;;30.80;42.90;;;;;;5092457;28;20326;-69
2023/09/08 05:12:19;;;;;;;;;;;31.70;43.70;;;;;;5092658;28;19908;-72
2023/09/08 05:14:46;;;;;;;;;;;32.40;42.00;;;;;;5092563;28;19908;-72
2023/09/08 05:17:13;;;;;;;;;;;32.40;42.30;;;;;;5092524;28;19990;-70
2023/09/08 05:19:39;;;;;;;;;;;32.50;41.70;;;;;;5091858;28;19946;-69
2023/09/08 05:22:09;;;;;;;;;;;32.60;42.10;;;;;;5090931;28;19908;-69
2023/09/08 05:24:36;;;;;;;;;;;32.10;41.20;;;;;;5094574;28;19908;-69
2023/09/08 05:27:02;;;;;;;;;;;31.60;41.50;;;;;;5095888;28;20365;-68
2023/09/08 05:29:29;;;;;;;;;;;32.20;42.40;;;;;;5094421;28;19947;-72
2023/09/08 05:31:56;;;;;;;;;;;32.10;41.30;;;;;;5094884;28;19908;-72
2023/09/08 05:34:22;;;;;;;;;;;32.20;41.50;;;;;;5096237;28;19915;-68
2023/09/08 05:36:49;;;;;;;;;;;32.40;41.70;;;;;;5095793;28;19908;-67
2023/09/08 05:39:17;;;;;;;;;;;32.20;41.50;;;;;;5094468;28;19931;-73
2023/09/08 05:41:44;;;;;;;;;;;31.90;41.90;;;;;;5095270;28;19919;-67
2023/09/08 05:44:10;;;;;;;;;;;31.90;41.60;;;;;;5095953;28;19912;-69
2023/09/08 05:46:37;;;;;;;;;;;31.10;41.80;;;;;;5095492;28;19920;-67
2023/09/08 05:49:04;;;;;;;;;;;30.40;42.60;;;;;;5096049;28;19915;-68
2023/09/08 05:51:31;;;;;;;;;;;30.90;43.40;;;;;;5096096;28;19914;-70
2023/09/08 05:53:58;;;;;;;;;;;30.30;42.70;;;;;;5095744;28;19908;-66
2023/09/08 05:56:26;;;;;;;;;;;29.60;43.00;;;;;;5095934;28;20353;-69
2023/09/08 05:58:53;;;;;;;;;;;29.50;43.80;;;;;;5095840;28;20319;-66
2023/09/08 06:01:20;;;;;;;;;;;29.30;43.60;;;;;;5096032;28;19954;-67
2023/09/08 06:03:46;;;;;;;;;;;28.90;44.30;;;;;;5095957;28;20356;-66
2023/09/08 06:06:13;;;;;;;;;;;29.10;45.40;;;;;;5092214;28;20434;-67
2023/09/08 06:08:41;;;;;;;;;;;28.20;45.80;;;;;;5088720;28;19914;-66
2023/09/08 06:11:08;;;;;;;;;;;26.80;46.70;;;;;;5075228;28;19908;-67
2023/09/08 06:13:34;;;;;;;;;;;25.30;47.40;;;;;;5084642;28;19919;-68
2023/09/08 06:16:01;;;;;;;;;;;23.60;50.60;;;;;;5091527;28;20304;-68
2023/09/08 06:18:30;;;;;;;;;;;22.50;51.60;;;;;;5095192;28;19908;-72
2023/09/08 06:20:57;;;;;;;;;;;21.60;51.60;;;;;;5095100;28;19995;-72
2023/09/08 06:23:23;;;;;;;;;;;21.00;54.20;;;;;;5089003;28;19916;-70
2023/09/08 06:25:50;;;;;;;;;;;20.40;53.80;;;;;;5090604;28;19955;-73
2023/09/08 06:28:17;;;;;;;;;;;20.20;56.20;;;;;;5089429;28;20468;-72
2023/09/08 06:30:44;;;;;;;;;;;20.00;55.70;;;;;;5087518;28;19919;-66
2023/09/08 06:33:11;;;;;;;;;;;19.90;56.50;;;;;;5094651;28;20283;-65
2023/09/08 06:35:37;;;;;;;;;;;19.70;56.50;;;;;;5078946;28;19923;-72
2023/09/08 06:38:04;;;;;;;;;;;19.60;56.80;;;;;;5082134;28;20257;-69
2023/09/08 06:40:31;;;;;;;;;;;19.60;56.90;;;;;;5091576;28;19916;-70
2023/09/08 06:42:57;;;;;;;;;;;19.80;57.00;;;;;;5084081;28;20486;-67
2023/09/08 06:45:24;;;;;;;;;;;19.80;57.20;;;;;;5092096;28;19923;-68
2023/09/08 06:47:54;;;;;;;;;;;19.60;57.30;;;;;;5091069;28;19927;-70
2023/09/08 06:50:22;;;;;;;;;;;19.70;58.10;;;;;;5094238;28;20376;-71
2023/09/08 06:52:49;;;;;;;;;;;20.30;58.10;;;;;;5086920;28;20269;-65
2023/09/08 06:55:16;;;;;;;;;;;20.90;56.70;;;;;;5092473;28;19914;-69
2023/09/08 06:57:44;;;;;;;;;;;21.20;57.10;;;;;;5085381;28;19976;-73
2023/09/08 07:00:13;;;;;;;;;;;21.10;56.90;;;;;;5084448;28;19916;-68
2023/09/08 07:02:41;;;;;;;;;;;20.60;58.20;;;;;;5078830;28;19951;-67
2023/09/08 07:05:08;;;;;;;;;;;20.10;59.30;;;;;;5079137;28;20365;-66
2023/09/08 07:07:35;;;;;;;;;;;19.50;60.00;;;;;;5093243;28;19916;-68
2023/09/08 07:10:03;;;;;;;;;;;18.90;60.80;;;;;;5092685;28;19994;-70
2023/09/08 07:12:32;;;;;;;;;;;18.50;62.10;;;;;;5093282;28;19916;-69
2023/09/08 07:15:02;;;;;;;;;;;18.10;62.90;;;;;;5091144;28;19923;-69
2023/09/08 07:17:29;;;;;;;;;;;17.90;63.80;;;;;;5092780;28;20296;-70
2023/09/08 07:19:55;;;;;;;;;;;17.60;64.90;;;;;;5092478;28;20421;-66
2023/09/08 07:22:22;;;;;;;;;;;17.40;66.40;;;;;;5093772;28;19908;-67
2023/09/08 07:24:49;;;;;;;;;;;17.20;66.20;;;;;;5091833;28;20304;-66
2023/09/08 07:27:15;;;;;;;;;;;17.30;67.30;;;;;;5089497;28;19920;-66
2023/09/08 07:29:42;;;;;;;;;;;17.10;67.40;;;;;;5092654;28;19979;-67
2023/09/08 07:32:08;;;;;;;;;;;17.00;67.20;;;;;;5082587;28;19935;-67
2023/09/08 07:34:35;;;;;;;;;;;16.90;67.30;;;;;;5083566;28;20321;-65
2023/09/08 07:37:02;;;;;;;;;;;16.80;67.70;;;;;;5088862;28;19923;-67
2023/09/08 07:39:30;;;;;;;;;;;16.70;68.80;;;;;;5090279;28;19912;-68
2023/09/08 07:41:56;;;;;;;;;;;16.70;68.90;;;;;;5092854;28;20372;-68
2023/09/08 07:44:23;;;;;;;;;;;16.60;69.10;;;;;;5088522;28;19912;-66
2023/09/08 07:46:51;;;;;;;;;;;16.50;69.40;;;;;;5088367;28;20672;-73
2023/09/08 07:49:19;;;;;;;;;;;16.50;70.10;;;;;;5092372;28;20049;-70
2023/09/08 07:51:46;;;;;;;;;;;16.40;70.10;;;;;;5091481;28;19911;-72
2023/09/08 07:54:12;;;;;;;;;;;16.30;69.80;;;;;;5091389;28;19912;-68
2023/09/08 07:56:40;;;;;;;;;;;16.30;70.10;;;;;;5091112;28;19917;-67
2023/09/08 07:59:07;;;;;;;;;;;16.20;70.50;;;;;;5090364;28;20387;-66
2023/09/08 08:01:34;;;;;;;;;;;16.10;70.90;;;;;;5090022;28;19912;-66
2023/09/08 08:04:03;;;;;;;;;;;16.10;72.10;;;;;;5089763;28;19908;-69
2023/09/08 08:06:30;;;;;;;;;;;16.00;71.50;;;;;;5092336;28;20007;-68
2023/09/08 08:08:56;;;;;;;;;;;16.00;71.80;;;;;;5090799;28;19994;-67
2023/09/08 08:11:23;;;;;;;;;;;15.90;72.30;;;;;;5091854;28;19912;-66
2023/09/08 08:13:50;;;;;;;;;;;15.80;72.50;;;;;;5088075;28;19912;-67
2023/09/08 08:16:16;;;;;;;;;;;15.70;73.10;;;;;;5092201;28;19931;-68
2023/09/08 08:18:43;;;;;;;;;;;15.70;73.50;;;;;;5090820;28;19961;-70
2023/09/08 08:21:10;;;;;;;;;;;15.60;74.10;;;;;;5094279;28;20304;-68
2023/09/08 08:23:38;;;;;;;;;;;15.60;74.40;;;;;;5087369;28;19912;-71
2023/09/08 08:26:05;;;;;;;;;;;15.50;73.90;;;;;;5089441;28;19908;-67
2023/09/08 08:28:31;;;;;;;;;;;15.50;73.90;;;;;;5079592;28;19924;-66
2023/09/08 08:30:58;;;;;;;;;;;15.40;73.60;;;;;;5085343;28;19931;-67
2023/09/08 08:33:25;;;;;;;;;;;15.40;73.70;;;;;;5072335;28;20277;-66
2023/09/08 08:35:53;;;;;;;;;;;15.30;74.20;;;;;;5084319;28;19919;-66
2023/09/08 08:38:19;;;;;;;;;;;15.30;74.40;;;;;;5080985;28;19908;-65
2023/09/08 08:40:46;;;;;;;;;;;15.20;73.00;;;;;;5086837;28;20281;-66
2023/09/08 08:43:13;;;;;;;;;;;15.10;73.20;;;;;;5082411;28;19908;-70
2023/09/08 08:45:43;;;;;;;;;;;15.10;72.20;;;;;;5085264;28;19952;-71
2023/09/08 08:48:10;;;;;;;;;;;15.10;72.50;;;;;;5089581;28;20014;-69
2023/09/08 08:50:38;;;;;;;;;;;15.00;72.60;;;;;;5103711;28;19951;-67
2023/09/08 08:53:04;;;;;;;;;;;15.00;73.30;;;;;;5090294;28;19912;-68
2023/09/08 08:55:31;;;;;;;;;;;14.90;73.30;;;;;;5083365;28;20018;-67
2023/09/08 08:58:05;;;;;;;;;;;14.90;72.90;;;;;;5091991;28;20372;-66
2023/09/08 09:00:39;;;;;;;;;;;14.80;74.00;;;;;;5090322;28;20309;-66
2023/09/08 09:03:06;;;;;;;;;;;14.80;73.80;;;;;;5070546;28;19977;-66
2023/09/08 09:05:33;;;;;;;;;;;14.80;73.50;;;;;;5092101;28;19912;-69
2023/09/08 09:08:03;;;;;;;;;;;14.70;73.70;;;;;;5092138;28;19978;-71
2023/09/08 09:10:31;;;;;;;;;;;14.80;73.90;;;;;;5084499;28;19927;-70
2023/09/08 09:12:58;;;;;;;;;;;14.70;74.40;;;;;;5072390;28;19923;-66
2023/09/08 09:15:34;;;;;;;;;;;14.70;74.90;;;;;;5080577;28;19916;-68
2023/09/08 09:18:05;;;;;;;;;;;14.60;74.40;;;;;;5086403;28;19916;-66
2023/09/08 09:20:32;;;;;;;;;;;14.50;74.70;;;;;;5080988;28;19912;-65
2023/09/08 09:22:59;;;;;;;;;;;14.50;75.90;;;;;;5070568;28;20018;-66
2023/09/08 09:25:27;;;;;;;;;;;14.50;75.70;;;;;;5080159;28;19916;-67
2023/09/08 09:27:54;;;;;;;;;;;14.50;75.30;;;;;;5088576;28;20005;-66
2023/09/08 09:30:21;;;;;;;;;;;14.40;75.70;;;;;;5085451;28;19998;-65
2023/09/08 09:32:50;;;;;;;;;;;14.30;76.10;;;;;;5086930;28;19916;-64
2023/09/08 09:35:17;;;;;;;;;;;14.30;76.00;;;;;;5084886;28;20405;-64
2023/09/08 09:37:44;;;;;;;;;;;14.30;76.30;;;;;;5084685;28;19927;-65
2023/09/08 09:40:11;;;;;;;;;;;14.30;76.90;;;;;;5077211;28;19916;-65
2023/09/08 09:42:40;;;;;;;;;;;14.30;76.30;;;;;;5079126;28;19916;-66
2023/09/08 09:45:07;;;;;;;;;;;14.30;76.30;;;;;;5088596;28;19931;-66
2023/09/08 09:47:34;;;;;;;;;;;14.20;76.50;;;;;;5091234;28;19999;-65
2023/09/08 09:50:02;;;;;;;;;;;14.20;76.80;;;;;;5091774;28;19912;-65
2023/09/08 09:52:31;;;;;;;;;;;14.20;76.90;;;;;;5092002;28;19918;-65
2023/09/08 09:54:58;;;;;;;;;;;14.30;77.40;;;;;;5091295;28;19954;-64
2023/09/08 09:57:25;;;;;;;;;;;14.20;77.30;;;;;;5092151;28;19912;-64
2023/09/08 09:59:54;;;;;;;;;;;14.20;77.70;;;;;;5091459;28;20432;-67
2023/09/08 10:02:21;;;;;;;;;;;14.10;77.80;;;;;;5090706;28;19916;-66
2023/09/08 10:04:51;;;;;;;;;;;14.10;78.10;;;;;;5091802;28;19909;-64
2023/09/08 10:07:18;;;;;;;;;;;14.00;78.30;;;;;;5091581;28;20381;-65
2023/09/08 10:09:44;;;;;;;;;;;13.90;78.50;;;;;;5092750;28;20321;-67
2023/09/08 10:12:15;;;;;;;;;;;13.90;78.40;;;;;;5095155;28;19916;-65
2023/09/08 10:14:42;;;;;;;;;;;13.90;78.50;;;;;;5095910;28;20421;-66
2023/09/08 10:17:10;;;;;;;;;;;13.90;78.90;;;;;;5095539;28;19915;-65
2023/09/08 10:19:41;;;;;;;;;;;13.80;79.10;;;;;;5093704;28;19912;-64
2023/09/08 10:22:10;;;;;;;;;;;13.80;79.50;;;;;;5089300;28;19934;-65
2023/09/08 10:24:39;;;;;;;;;;;13.80;79.60;;;;;;5096004;28;19912;-67
2023/09/08 10:27:05;;;;;;;;;;;13.70;80.30;;;;;;5092133;28;20250;-65
2023/09/08 10:29:33;;;;;;;;;;;13.70;80.50;;;;;;5094947;28;19935;-65
2023/09/08 10:31:59;;;;;;;;;;;13.70;80.00;;;;;;5078580;28;20281;-66
2023/09/08 10:34:26;;;;;;;;;;;13.60;80.00;;;;;;5084464;28;19912;-66
2023/09/08 10:36:53;;;;;;;;;;;13.60;80.70;;;;;;5091087;28;20418;-66
2023/09/08 10:39:37;;;;;;;;;;;13.60;81.00;;;;;;5094628;28;19962;-66
2023/09/08 10:42:20;;;;;;;;;;;13.50;81.40;;;;;;5081726;28;19920;-65
2023/09/08 10:44:49;;;;;;;;;;;13.50;81.30;;;;;;5074698;28;19962;-66
2023/09/08 10:47:38;;;;;;;;;;;13.50;81.20;;;;;;5090573;28;19966;-67
2023/09/08 10:50:06;;;;;;;;;;;13.40;81.60;;;;;;5087426;28;19919;-66
2023/09/08 10:52:35;;;;;;;;;;;13.50;81.20;;;;;;5093648;28;20257;-69
2023/09/08 10:55:01;;;;;;;;;;;13.40;81.50;;;;;;5090103;28;20404;-66
2023/09/08 10:57:31;;;;;;;;;;;13.30;82.00;;;;;;5074508;28;19920;-65
2023/09/08 11:00:00;;;;;;;;;;;13.30;82.50;;;;;;5086214;28;19919;-66
2023/09/08 11:02:39;;;;;;;;;;;13.20;82.10;;;;;;5093686;28;19916;-65
2023/09/08 11:05:10;;;;;;;;;;;13.20;82.40;;;;;;5094422;28;19951;-65
2023/09/08 11:07:37;;;;;;;;;;;13.30;82.70;;;;;;5093099;28;20301;-66
2023/09/08 11:10:04;;;;;;;;;;;13.30;82.60;;;;;;5093625;28;19912;-66
2023/09/08 11:12:32;;;;;;;;;;;13.20;82.50;;;;;;5093827;28;19959;-65
2023/09/08 11:15:03;;;;;;;;;;;13.20;82.40;;;;;;5094250;28;20365;-64
2023/09/08 11:17:31;;;;;;;;;;;13.10;83.40;;;;;;5085761;28;19912;-77
2023/09/08 11:19:58;;;;;;;;;;;13.10;82.60;;;;;;5084699;28;19912;-71
2023/09/08 11:22:26;;;;;;;;;;;13.10;82.80;;;;;;5093738;28;19958;-66
2023/09/08 11:24:58;;;;;;;;;;;13.20;82.70;;;;;;5093996;28;19919;-63
2023/09/08 11:27:25;;;;;;;;;;;13.10;83.60;;;;;;5073453;28;20526;-67
2023/09/08 11:29:52;;;;;;;;;;;13.10;83.10;;;;;;5083420;28;19962;-68
2023/09/08 11:32:18;;;;;;;;;;;13.10;83.40;;;;;;5091932;28;19931;-67
2023/09/08 11:34:45;;;;;;;;;;;13.10;85.00;;;;;;5093846;28;19912;-72
2023/09/08 11:37:13;;;;;;;;;;;13.10;84.20;;;;;;5084898;28;19975;-71
2023/09/08 11:39:40;;;;;;;;;;;13.00;84.20;;;;;;5092140;28;20440;-66
2023/09/08 11:42:07;;;;;;;;;;;13.00;84.60;;;;;;5071734;28;19969;-72
2023/09/08 11:44:35;;;;;;;;;;;12.90;84.40;;;;;;5080160;28;19919;-72
2023/09/08 11:47:03;;;;;;;;;;;13.00;84.70;;;;;;5082383;28;20297;-68
2023/09/08 11:49:36;;;;;;;;;;;12.90;84.90;;;;;;5078130;28;20373;-65
2023/09/08 11:52:03;;;;;;;;;;;12.90;85.00;;;;;;5076294;28;19915;-73
2023/09/08 11:54:32;;;;;;;;;;;12.90;85.10;;;;;;5077990;28;19916;-75
2023/09/08 11:57:01;;;;;;;;;;;12.90;85.50;;;;;;5071928;28;19917;-73
2023/09/08 11:59:28;;;;;;;;;;;12.70;85.60;;;;;;5092679;28;19912;-65
2023/09/08 12:01:56;;;;;;;;;;;12.80;85.60;;;;;;5078103;28;19939;-70
2023/09/08 12:04:23;;;;;;;;;;;12.80;85.70;;;;;;5076516;28;20422;-72
2023/09/08 12:06:51;;;;;;;;;;;12.80;86.00;;;;;;5086046;28;19959;-66
2023/09/08 12:09:18;;;;;;;;;;;12.70;86.10;;;;;;5075456;28;19920;-65
2023/09/08 12:11:45;;;;;;;;;;;12.80;85.30;;;;;;5080563;28;20050;-65
2023/09/08 12:14:12;;;;;;;;;;;12.70;85.60;;;;;;5073964;28;19916;-66
2023/09/08 12:16:39;;;;;;;;;;;12.70;85.50;;;;;;5091948;28;19912;-73
2023/09/08 12:19:06;;;;;;;;;;;12.70;85.40;;;;;;5074171;28;19927;-75
2023/09/08 12:21:53;;;;;;;;;;;12.70;85.20;;;;;;5081101;28;19932;-67
2023/09/08 12:24:19;;;;;;;;;;;12.70;85.50;;;;;;5074309;28;19924;-65
2023/09/08 12:26:46;;;;;;;;;;;12.70;85.40;;;;;;5088111;28;19925;-71
2023/09/08 12:29:13;;;;;;;;;;;12.70;85.70;;;;;;5078519;28;19920;-72
2023/09/08 12:31:40;;;;;;;;;;;12.60;86.70;;;;;;5080438;28;19909;-65
2023/09/08 12:34:09;;;;;;;;;;;12.70;86.50;;;;;;5072262;28;19912;-71
2023/09/08 12:36:36;;;;;;;;;;;12.60;85.90;;;;;;5108106;28;20001;-67
2023/09/08 12:39:04;;;;;;;;;;;12.60;85.90;;;;;;5089837;28;19911;-70
2023/09/08 12:41:31;;;;;;;;;;;12.60;86.00;;;;;;5080471;28;20063;-65
2023/09/08 12:43:58;;;;;;;;;;;12.60;85.80;;;;;;5084102;28;19916;-74
2023/09/08 12:46:25;;;;;;;;;;;12.60;86.10;;;;;;5082997;28;19966;-71
2023/09/08 12:48:52;;;;;;;;;;;12.60;85.70;;;;;;5086054;28;19920;-68
2023/09/08 12:51:19;;;;;;;;;;;12.60;86.10;;;;;;5074833;28;19913;-69
2023/09/08 12:53:45;;;;;;;;;;;12.60;85.80;;;;;;5082827;28;19920;-67
2023/09/08 12:56:12;;;;;;;;;;;12.60;85.10;;;;;;5092300;28;19908;-67
2023/09/08 12:58:38;;;;;;;;;;;12.60;85.40;;;;;;5081999;28;19912;-66
2023/09/08 13:01:06;;;;;;;;;;;12.60;85.40;;;;;;5084537;28;19909;-65
2023/09/08 13:03:33;;;;;;;;;;;12.60;85.70;;;;;;5077707;28;20273;-66
2023/09/08 13:06:00;;;;;;;;;;;12.60;85.00;;;;;;5091488;28;20392;-65
2023/09/08 13:08:26;;;;;;;;;;;12.60;85.60;;;;;;5086200;28;19928;-64
2023/09/08 13:10:53;;;;;;;;;;;12.50;85.90;;;;;;5085790;28;19908;-69
2023/09/08 13:13:20;;;;;;;;;;;12.50;85.80;;;;;;5074576;28;19912;-67
2023/09/08 13:15:46;;;;;;;;;;;12.50;85.80;;;;;;5072923;28;19916;-67
2023/09/08 13:18:13;;;;;;;;;;;12.50;86.30;;;;;;5080369;28;19919;-67
2023/09/08 13:20:39;;;;;;;;;;;12.50;87.10;;;;;;5104352;28;20007;-67
2023/09/08 13:23:06;;;;;;;;;;;12.50;86.10;;;;;;5075520;28;19912;-67
2023/09/08 13:25:33;;;;;;;;;;;12.50;86.80;;;;;;5075469;28;19912;-65
2023/09/08 13:27:59;;;;;;;;;;;12.50;86.60;;;;;;5080688;28;20409;-66
2023/09/08 13:30:27;;;;;;;;;;;12.40;86.50;;;;;;5079449;28;19913;-65
2023/09/08 13:32:55;;;;;;;;;;;12.40;87.70;;;;;;5072603;28;19913;-65
2023/09/08 13:35:22;;;;;;;;;;;12.30;86.80;;;;;;5092127;28;19912;-65
2023/09/08 13:37:48;;;;;;;;;;;12.30;86.80;;;;;;5083436;28;20003;-67
2023/09/08 13:40:15;;;;;;;;;;;12.30;87.60;;;;;;5071152;28;20276;-64
2023/09/08 13:42:42;;;;;;;;;;;12.30;87.30;;;;;;5072615;28;19917;-64
2023/09/08 13:45:09;;;;;;;;;;;12.30;87.40;;;;;;5073705;28;19912;-68
2023/09/08 13:47:38;;;;;;;;;;;12.20;87.60;;;;;;5074709;28;19921;-64
2023/09/08 13:50:05;;;;;;;;;;;12.20;88.30;;;;;;5075256;28;19920;-66
2023/09/08 13:52:31;;;;;;;;;;;12.20;87.60;;;;;;5083627;28;20274;-66
2023/09/08 13:54:58;;;;;;;;;;;12.20;87.90;;;;;;5083497;28;19912;-67
2023/09/08 13:57:26;;;;;;;;;;;12.20;87.60;;;;;;5074624;28;20023;-66
2023/09/08 13:59:54;;;;;;;;;;;12.20;87.80;;;;;;5079197;28;20361;-65
2023/09/08 14:02:20;;;;;;;;;;;12.10;87.80;;;;;;5079874;28;20363;-72
2023/09/08 14:04:47;;;;;;;;;;;12.10;89.50;;;;;;5095539;28;19912;-65
2023/09/08 14:07:14;;;;;;;;;;;12.10;89.20;;;;;;5091465;28;19947;-64
2023/09/08 14:09:40;;;;;;;;;;;12.00;88.80;;;;;;5088725;28;19966;-65
2023/09/08 14:12:07;;;;;;;;;;;12.00;89.50;;;;;;5078926;28;19958;-67
2023/09/08 14:14:34;;;;;;;;;;;12.00;89.90;;;;;;5087560;28;20022;-67
2023/09/08 14:17:00;;;;;;;;;;;11.90;89.10;;;;;;5083772;28;20305;-67